sensor_id;sensor_type;location;lat;lon;timestamp;pressure;altitude;pressure_sealevel;temperature;humidity
44457;BME280;30159;49.316;8.558;2023-01-27T00:00:09;100855.56;;;1.52;100.00
44457;BME280;30159;49.316;8.558;2023-01-27T00:02:36;100849.44;;;1.52;100.00
44457;BME280;30159;49.316;8.558;2023-01-27T00:05:04;100851.06;;;1.33;100.00
44457;BME280;30159;49.316;8.558;2023-01-27T00:07:30;100853.97;;;1.31;100.00
44457;BME280;30159;49.316;8.558;2023-01-27T00:09:57;100836.97;;;1.25;100.00
44457;BME280;30159;49.316;8.558;2023-01-27T00:12:25;100860.06;;;1.45;100.00
44457;BME280;30159;49.316;8.558;2023-01-27T00:15:11;100852.72;;;1.47;100.00
44457;BME280;30159;49.316;8.558;2023-01-27T00:17:38;100852.31;;;1.37;100.00
44457;BME280;30159;49.316;8.558;2023-01-27T00:20:06;100847.66;;;1.05;100.00
44457;BME280;30159;49.316;8.558;2023-01-27T00:22:32;100854.56;;;1.13;100.00
44457;BME280;30159;49.316;8.558;2023-01-27T00:25:17;100849.66;;;1.23;100.00
44457;BME280;30159;49.316;8.558;2023-01-27T00:27:45;100846.59;;;1.33;100.00
44457;BME280;30159;49.316;8.558;2023-01-27T00:30:12;100722.66;;;0.60;100.00
44457;BME280;30159;49.316;8.558;2023-01-27T00:32:39;100849.44;;;1.45;100.00
44457;BME280;30159;49.316;8.558;2023-01-27T00:35:23;100852.31;;;1.37;100.00
44457;BME280;30159;49.316;8.558;2023-01-27T00:37:49;100838.19;;;1.36;100.00
44457;BME280;30159;49.316;8.558;2023-01-27T00:40:16;100846.59;;;1.20;100.00
44457;BME280;30159;49.316;8.558;2023-01-27T00:42:44;100843.94;;;1.07;100.00
44457;BME280;30159;49.316;8.558;2023-01-27T00:45:11;100842.34;;;1.12;100.00
44457;BME280;30159;49.316;8.558;2023-01-27T00:47:55;100845.19;;;1.17;100.00
44457;BME280;30159;49.316;8.558;2023-01-27T00:50:22;100829.84;;;1.26;100.00
44457;BME280;30159;49.316;8.558;2023-01-27T00:52:48;100835.34;;;1.31;100.00
44457;BME280;30159;49.316;8.558;2023-01-27T00:55:16;100837.59;;;1.34;100.00
44457;BME280;30159;49.316;8.558;2023-01-27T00:57:42;100825.69;;;1.50;100.00
44457;BME280;30159;49.316;8.558;2023-01-27T01:00:12;100834.06;;;1.54;100.00
44457;BME280;30159;49.316;8.558;2023-01-27T01:02:39;100832.25;;;1.54;100.00
44457;BME280;30159;49.316;8.558;2023-01-27T01:05:06;100835.91;;;1.60;100.00
44457;BME280;30159;49.316;8.558;2023-01-27T01:07:33;100824.84;;;1.63;100.00
44457;BME280;30159;49.316;8.558;2023-01-27T01:10:00;100831.81;;;1.64;100.00
44457;BME280;30159;49.316;8.558;2023-01-27T01:12:26;100788.09;;;1.40;100.00
44457;BME280;30159;49.316;8.558;2023-01-27T01:14:53;100819.16;;;1.46;100.00
44457;BME280;30159;49.316;8.558;2023-01-27T01:17:21;100837.34;;;1.56;100.00
44457;BME280;30159;49.316;8.558;2023-01-27T01:19:48;100826.09;;;1.54;100.00
44457;BME280;30159;49.316;8.558;2023-01-27T01:22:14;100826.06;;;1.60;100.00
44457;BME280;30159;49.316;8.558;2023-01-27T01:24:41;100825.50;;;1.52;100.00
44457;BME280;30159;49.316;8.558;2023-01-27T01:27:07;100828.16;;;1.52;100.00
44457;BME280;30159;49.316;8.558;2023-01-27T01:29:34;100830.59;;;1.53;100.00
44457;BME280;30159;49.316;8.558;2023-01-27T01:32:00;100831.81;;;1.51;100.00
44457;BME280;30159;49.316;8.558;2023-01-27T01:34:28;100837.13;;;1.64;100.00
44457;BME280;30159;49.316;8.558;2023-01-27T01:36:55;100828.53;;;1.62;100.00
44457;BME280;30159;49.316;8.558;2023-01-27T01:39:21;100830.16;;;1.63;100.00
44457;BME280;30159;49.316;8.558;2023-01-27T01:41:48;100832.41;;;1.66;100.00
44457;BME280;30159;49.316;8.558;2023-01-27T01:44:19;100830.56;;;1.66;100.00
44457;BME280;30159;49.316;8.558;2023-01-27T01:46:45;100829.31;;;1.69;100.00
44457;BME280;30159;49.316;8.558;2023-01-27T01:49:13;100827.28;;;1.64;100.00
44457;BME280;30159;49.316;8.558;2023-01-27T01:51:43;100833.88;;;1.42;100.00
44457;BME280;30159;49.316;8.558;2023-01-27T01:54:14;100832.25;;;1.47;100.00
44457;BME280;30159;49.316;8.558;2023-01-27T01:56:45;100833.66;;;1.57;100.00
44457;BME280;30159;49.316;8.558;2023-01-27T01:59:17;100831.63;;;1.52;100.00
44457;BME280;30159;49.316;8.558;2023-01-27T02:01:44;100830.22;;;1.36;100.00
44457;BME280;30159;49.316;8.558;2023-01-27T02:04:14;100823.66;;;1.45;100.00
44457;BME280;30159;49.316;8.558;2023-01-27T02:06:49;100806.13;;;1.24;100.00
44457;BME280;30159;49.316;8.558;2023-01-27T02:09:19;100828.59;;;1.35;100.00
44457;BME280;30159;49.316;8.558;2023-01-27T02:11:46;100827.56;;;1.36;100.00
44457;BME280;30159;49.316;8.558;2023-01-27T02:14:13;100834.31;;;1.45;100.00
44457;BME280;30159;49.316;8.558;2023-01-27T02:16:41;100828.56;;;1.48;100.00
44457;BME280;30159;49.316;8.558;2023-01-27T02:19:10;100822.88;;;1.38;100.00
44457;BME280;30159;49.316;8.558;2023-01-27T02:21:40;100814.91;;;1.32;100.00
44457;BME280;30159;49.316;8.558;2023-01-27T02:24:09;100816.31;;;1.41;100.00
44457;BME280;30159;49.316;8.558;2023-01-27T02:26:41;100819.59;;;1.43;100.00
44457;BME280;30159;49.316;8.558;2023-01-27T02:29:11;100818.56;;;1.44;100.00
44457;BME280;30159;49.316;8.558;2023-01-27T02:31:38;100825.94;;;1.35;100.00
44457;BME280;30159;49.316;8.558;2023-01-27T02:34:07;100819.59;;;1.43;100.00
44457;BME280;30159;49.316;8.558;2023-01-27T02:36:39;100823.88;;;1.44;100.00
44457;BME280;30159;49.316;8.558;2023-01-27T02:39:10;100823.47;;;1.40;100.00
44457;BME280;30159;49.316;8.558;2023-01-27T02:41:41;100821.84;;;1.39;100.00
44457;BME280;30159;49.316;8.558;2023-01-27T02:44:12;100819.19;;;1.33;100.00
44457;BME280;30159;49.316;8.558;2023-01-27T02:46:39;100823.28;;;1.35;100.00
44457;BME280;30159;49.316;8.558;2023-01-27T02:49:06;100820.41;;;1.43;100.00
44457;BME280;30159;49.316;8.558;2023-01-27T02:51:32;100815.44;;;1.54;100.00
44457;BME280;30159;49.316;8.558;2023-01-27T02:53:59;100821.19;;;1.51;100.00
44457;BME280;30159;49.316;8.558;2023-01-27T02:56:25;100818.72;;;1.56;100.00
44457;BME280;30159;49.316;8.558;2023-01-27T02:58:53;100821.19;;;1.51;100.00
44457;BME280;30159;49.316;8.558;2023-01-27T03:01:20;100814.09;;;1.38;100.00
44457;BME280;30159;49.316;8.558;2023-01-27T03:03:48;100814.66;;;1.46;100.00
44457;BME280;30159;49.316;8.558;2023-01-27T03:06:15;100813.06;;;1.25;100.00
44457;BME280;30159;49.316;8.558;2023-01-27T03:08:44;100814.75;;;1.07;100.00
44457;BME280;30159;49.316;8.558;2023-01-27T03:11:11;100812.50;;;1.10;100.00
44457;BME280;30159;49.316;8.558;2023-01-27T03:13:37;100823.31;;;1.29;100.00
44457;BME280;30159;49.316;8.558;2023-01-27T03:16:06;100699.63;;;0.54;100.00
44457;BME280;30159;49.316;8.558;2023-01-27T03:18:51;100725.72;;;0.71;100.00
44457;BME280;30159;49.316;8.558;2023-01-27T03:21:20;100822.28;;;1.23;100.00
44457;BME280;30159;49.316;8.558;2023-01-27T03:23:47;100821.47;;;1.29;100.00
44457;BME280;30159;49.316;8.558;2023-01-27T03:26:14;100828.22;;;1.18;100.00
44457;BME280;30159;49.316;8.558;2023-01-27T03:28:40;100827.59;;;1.23;100.00
44457;BME280;30159;49.316;8.558;2023-01-27T03:31:10;100822.28;;;1.16;100.00
44457;BME280;30159;49.316;8.558;2023-01-27T03:33:43;100830.44;;;1.28;100.00
44457;BME280;30159;49.316;8.558;2023-01-27T03:36:12;100707.56;;;0.28;100.00
44457;BME280;30159;49.316;8.558;2023-01-27T03:38:56;100832.09;;;1.16;100.00
44457;BME280;30159;49.316;8.558;2023-01-27T03:41:40;100838.84;;;1.12;100.00
44457;BME280;30159;49.316;8.558;2023-01-27T03:44:24;100828.25;;;1.05;100.00
44457;BME280;30159;49.316;8.558;2023-01-27T03:47:10;100832.53;;;1.06;100.00
44457;BME280;30159;49.316;8.558;2023-01-27T03:49:36;100790.25;;;0.91;100.00
44457;BME280;30159;49.316;8.558;2023-01-27T03:52:03;100833.09;;;1.28;100.00
44457;BME280;30159;49.316;8.558;2023-01-27T03:54:29;100835.34;;;1.31;100.00
44457;BME280;30159;49.316;8.558;2023-01-27T03:56:56;100835.56;;;1.23;100.00
44457;BME280;30159;49.316;8.558;2023-01-27T03:59:30;100835.16;;;1.13;100.00
44457;BME280;30159;49.316;8.558;2023-01-27T04:01:57;100847.00;;;1.23;100.00
44457;BME280;30159;49.316;8.558;2023-01-27T04:04:42;100845.81;;;1.13;100.00
44457;BME280;30159;49.316;8.558;2023-01-27T04:07:26;100863.16;;;1.09;100.00
44457;BME280;30159;49.316;8.558;2023-01-27T04:09:53;100854.38;;;1.21;100.00
44457;BME280;30159;49.316;8.558;2023-01-27T04:12:19;100851.31;;;1.11;100.00
44457;BME280;30159;49.316;8.558;2023-01-27T04:14:45;100857.22;;;1.07;100.00
44457;BME280;30159;49.316;8.558;2023-01-27T04:17:14;100842.94;;;0.94;100.00
44457;BME280;30159;49.316;8.558;2023-01-27T04:19:43;100845.41;;;0.89;100.00
44457;BME280;30159;49.316;8.558;2023-01-27T04:22:10;100851.91;;;1.07;100.00
44457;BME280;30159;49.316;8.558;2023-01-27T04:24:37;100820.69;;;0.82;100.00
44457;BME280;30159;49.316;8.558;2023-01-27T04:27:05;100849.50;;;0.98;100.00
44457;BME280;30159;49.316;8.558;2023-01-27T04:29:34;100855.19;;;1.02;100.00
44457;BME280;30159;49.316;8.558;2023-01-27T04:32:01;100842.34;;;1.05;100.00
44457;BME280;30159;49.316;8.558;2023-01-27T04:34:30;100770.66;;;0.52;100.00
44457;BME280;30159;49.316;8.558;2023-01-27T04:36:58;100844.78;;;1.00;100.00
44457;BME280;30159;49.316;8.558;2023-01-27T04:39:25;100857.44;;;1.12;100.00
44457;BME280;30159;49.316;8.558;2023-01-27T04:41:51;100860.94;;;1.12;100.00
44457;BME280;30159;49.316;8.558;2023-01-27T04:44:18;100727.19;;;0.33;100.00
44457;BME280;30159;49.316;8.558;2023-01-27T04:46:45;100874.19;;;1.19;100.00
44457;BME280;30159;49.316;8.558;2023-01-27T04:49:12;100864.16;;;1.21;100.00
44457;BME280;30159;49.316;8.558;2023-01-27T04:51:39;100858.84;;;1.21;100.00
44457;BME280;30159;49.316;8.558;2023-01-27T04:54:07;100842.53;;;0.97;100.00
44457;BME280;30159;49.316;8.558;2023-01-27T04:56:35;100859.28;;;1.24;100.00
44457;BME280;30159;49.316;8.558;2023-01-27T04:59:03;100862.75;;;1.32;100.00
44457;BME280;30159;49.316;8.558;2023-01-27T05:01:31;100861.69;;;1.33;100.00
44457;BME280;30159;49.316;8.558;2023-01-27T05:03:57;100872.31;;;1.39;100.00
44457;BME280;30159;49.316;8.558;2023-01-27T05:06:25;100863.97;;;1.22;100.00
44457;BME280;30159;49.316;8.558;2023-01-27T05:08:52;100870.72;;;1.18;100.00
44457;BME280;30159;49.316;8.558;2023-01-27T05:11:20;100862.97;;;1.17;100.00
44457;BME280;30159;49.316;8.558;2023-01-27T05:13:47;100865.81;;;1.29;100.00
44457;BME280;30159;49.316;8.558;2023-01-27T05:16:15;100860.50;;;1.15;100.00
44457;BME280;30159;49.316;8.558;2023-01-27T05:18:43;100865.81;;;1.15;100.00
44457;BME280;30159;49.316;8.558;2023-01-27T05:21:12;100865.81;;;1.15;100.00
44457;BME280;30159;49.316;8.558;2023-01-27T05:23:39;100812.69;;;0.95;100.00
44457;BME280;30159;49.316;8.558;2023-01-27T05:26:10;100709.59;;;0.26;100.00
44457;BME280;30159;49.316;8.558;2023-01-27T05:28:39;100863.97;;;1.16;100.00
44457;BME280;30159;49.316;8.558;2023-01-27T05:31:08;100862.34;;;1.15;100.00
44457;BME280;30159;49.316;8.558;2023-01-27T05:33:36;100865.41;;;1.18;100.00
44457;BME280;30159;49.316;8.558;2023-01-27T05:36:05;100861.75;;;1.19;100.00
44457;BME280;30159;49.316;8.558;2023-01-27T05:38:32;100863.16;;;1.22;100.00
44457;BME280;30159;49.316;8.558;2023-01-27T05:41:00;100866.19;;;1.32;100.00
44457;BME280;30159;49.316;8.558;2023-01-27T05:43:28;100873.13;;;1.40;100.00
44457;BME280;30159;49.316;8.558;2023-01-27T05:46:07;100857.63;;;1.37;100.00
44457;BME280;30159;49.316;8.558;2023-01-27T05:48:35;100889.06;;;1.53;100.00
44457;BME280;30159;49.316;8.558;2023-01-27T05:51:02;100867.41;;;1.56;100.00
44457;BME280;30159;49.316;8.558;2023-01-27T05:53:29;100872.72;;;1.50;100.00
44457;BME280;30159;49.316;8.558;2023-01-27T05:55:56;100885.41;;;1.47;100.00
44457;BME280;30159;49.316;8.558;2023-01-27T05:58:23;100874.97;;;1.39;100.00
44457;BME280;30159;49.316;8.558;2023-01-27T06:00:51;100883.97;;;1.52;100.00
44457;BME280;30159;49.316;8.558;2023-01-27T06:03:19;100892.16;;;1.57;100.00
44457;BME280;30159;49.316;8.558;2023-01-27T06:05:53;100891.34;;;1.56;100.00
44457;BME280;30159;49.316;8.558;2023-01-27T06:08:20;100886.66;;;1.45;100.00
44457;BME280;30159;49.316;8.558;2023-01-27T06:10:48;100896.66;;;1.50;100.00
44457;BME280;30159;49.316;8.558;2023-01-27T06:13:15;100759.22;;;0.65;100.00
44457;BME280;30159;49.316;8.558;2023-01-27T06:15:42;100898.91;;;1.39;100.00
44457;BME280;30159;49.316;8.558;2023-01-27T06:18:10;100846.00;;;1.04;100.00
44457;BME280;30159;49.316;8.558;2023-01-27T06:20:39;100807.00;;;0.85;100.00
44457;BME280;30159;49.316;8.558;2023-01-27T06:23:06;100887.28;;;1.20;100.00
44457;BME280;30159;49.316;8.558;2023-01-27T06:25:36;100893.19;;;1.36;100.00
44457;BME280;30159;49.316;8.558;2023-01-27T06:28:04;100881.53;;;1.30;100.00
44457;BME280;30159;49.316;8.558;2023-01-27T06:30:31;100901.75;;;1.44;100.00
44457;BME280;30159;49.316;8.558;2023-01-27T06:32:58;100898.47;;;1.49;100.00
44457;BME280;30159;49.316;8.558;2023-01-27T06:35:25;100899.09;;;1.51;100.00
44457;BME280;30159;49.316;8.558;2023-01-27T06:37:53;100900.28;;;1.68;100.00
44457;BME280;30159;49.316;8.558;2023-01-27T06:40:19;100900.31;;;1.62;100.00
44457;BME280;30159;49.316;8.558;2023-01-27T06:42:46;100895.78;;;1.69;100.00
44457;BME280;30159;49.316;8.558;2023-01-27T06:45:12;100892.97;;;1.57;100.00
44457;BME280;30159;49.316;8.558;2023-01-27T06:47:39;100894.75;;;1.70;100.00
44457;BME280;30159;49.316;8.558;2023-01-27T06:50:07;100915.19;;;1.89;100.00
44457;BME280;30159;49.316;8.558;2023-01-27T06:52:34;100902.50;;;1.92;100.00
44457;BME280;30159;49.316;8.558;2023-01-27T06:55:03;100900.81;;;1.97;100.00
44457;BME280;30159;49.316;8.558;2023-01-27T06:57:30;100912.50;;;2.03;100.00
44457;BME280;30159;49.316;8.558;2023-01-27T06:59:58;100911.03;;;2.00;100.00
44457;BME280;30159;49.316;8.558;2023-01-27T07:02:25;100924.38;;;1.94;100.00
44457;BME280;30159;49.316;8.558;2023-01-27T07:04:52;100919.06;;;1.94;100.00
44457;BME280;30159;49.316;8.558;2023-01-27T07:07:18;100917.59;;;1.91;100.00
44457;BME280;30159;49.316;8.558;2023-01-27T07:09:45;100890.19;;;1.90;100.00
44457;BME280;30159;49.316;8.558;2023-01-27T07:12:12;100927.75;;;2.21;100.00
44457;BME280;30159;49.316;8.558;2023-01-27T07:14:39;100939.63;;;2.18;100.00
44457;BME280;30159;49.316;8.558;2023-01-27T07:17:08;100940.06;;;2.15;100.00
44457;BME280;30159;49.316;8.558;2023-01-27T07:19:34;100942.94;;;2.07;100.00
44457;BME280;30159;49.316;8.558;2023-01-27T07:22:01;100936.59;;;2.15;100.00
44457;BME280;30159;49.316;8.558;2023-01-27T07:24:27;100943.78;;;2.01;100.00
44457;BME280;30159;49.316;8.558;2023-01-27T07:26:54;100951.34;;;2.04;100.00
44457;BME280;30159;49.316;8.558;2023-01-27T07:29:22;100934.41;;;1.98;100.00
44457;BME280;30159;49.316;8.558;2023-01-27T07:31:51;100950.53;;;2.10;100.00
44457;BME280;30159;49.316;8.558;2023-01-27T07:34:18;100953.38;;;2.15;100.00
44457;BME280;30159;49.316;8.558;2023-01-27T07:36:45;100950.88;;;2.27;100.00
44457;BME280;30159;49.316;8.558;2023-01-27T07:39:11;100964.16;;;2.34;100.00
44457;BME280;30159;49.316;8.558;2023-01-27T07:41:38;100962.78;;;2.18;100.00
44457;BME280;30159;49.316;8.558;2023-01-27T07:44:04;100964.19;;;2.20;100.00
44457;BME280;30159;49.316;8.558;2023-01-27T07:46:32;100959.69;;;2.14;100.00
44457;BME280;30159;49.316;8.558;2023-01-27T07:48:59;100968.88;;;2.31;100.00
44457;BME280;30159;49.316;8.558;2023-01-27T07:51:25;100964.97;;;2.34;100.00
44457;BME280;30159;49.316;8.558;2023-01-27T07:53:52;100982.56;;;2.35;100.00
44457;BME280;30159;49.316;8.558;2023-01-27T07:56:18;100983.75;;;2.52;100.00
44457;BME280;30159;49.316;8.558;2023-01-27T07:58:45;100981.72;;;2.41;100.00
44457;BME280;30159;49.316;8.558;2023-01-27T08:01:12;100989.72;;;2.35;100.00
44457;BME280;30159;49.316;8.558;2023-01-27T08:03:39;100986.88;;;2.36;100.00
44457;BME280;30159;49.316;8.558;2023-01-27T08:06:09;100992.81;;;2.38;100.00
44457;BME280;30159;49.316;8.558;2023-01-27T08:08:36;100992.78;;;2.45;100.00
44457;BME280;30159;49.316;8.558;2023-01-27T08:11:05;100990.75;;;2.40;100.00
44457;BME280;30159;49.316;8.558;2023-01-27T08:13:33;100985.22;;;2.35;100.00
44457;BME280;30159;49.316;8.558;2023-01-27T08:16:01;100998.47;;;2.55;100.00
44457;BME280;30159;49.316;8.558;2023-01-27T08:18:29;100937.31;;;2.35;100.00
44457;BME280;30159;49.316;8.558;2023-01-27T08:21:00;100991.59;;;2.34;100.00
44457;BME280;30159;49.316;8.558;2023-01-27T08:23:26;100991.94;;;2.51;100.00
44457;BME280;30159;49.316;8.558;2023-01-27T08:25:55;100976.34;;;2.55;100.00
44457;BME280;30159;49.316;8.558;2023-01-27T08:28:23;100992.31;;;2.61;100.00
44457;BME280;30159;49.316;8.558;2023-01-27T08:30:50;100991.13;;;2.44;100.00
44457;BME280;30159;49.316;8.558;2023-01-27T08:33:18;100997.06;;;2.46;100.00
44457;BME280;30159;49.316;8.558;2023-01-27T08:35:45;100995.63;;;2.50;100.00
44457;BME280;30159;49.316;8.558;2023-01-27T08:38:14;100993.38;;;2.47;100.00
44457;BME280;30159;49.316;8.558;2023-01-27T08:40:42;100999.44;;;2.67;100.00
44457;BME280;30159;49.316;8.558;2023-01-27T08:43:08;100996.53;;;2.76;100.00
44457;BME280;30159;49.316;8.558;2023-01-27T08:45:35;100995.50;;;2.77;100.00
44457;BME280;30159;49.316;8.558;2023-01-27T08:48:03;100981.53;;;2.81;100.00
44457;BME280;30159;49.316;8.558;2023-01-27T08:50:31;100993.38;;;2.92;100.00
44457;BME280;30159;49.316;8.558;2023-01-27T08:52:57;101000.25;;;3.06;100.00
44457;BME280;30159;49.316;8.558;2023-01-27T08:55:27;100989.94;;;3.16;100.00
44457;BME280;30159;49.316;8.558;2023-01-27T08:57:54;100994.84;;;3.20;99.90
44457;BME280;30159;49.316;8.558;2023-01-27T09:00:21;100989.13;;;3.16;99.11
44457;BME280;30159;49.316;8.558;2023-01-27T09:02:48;100986.59;;;2.96;97.94
44457;BME280;30159;49.316;8.558;2023-01-27T09:05:16;100989.09;;;2.84;99.50
44457;BME280;30159;49.316;8.558;2023-01-27T09:07:45;100990.53;;;2.87;98.76
44457;BME280;30159;49.316;8.558;2023-01-27T09:10:14;100987.00;;;2.93;97.88
44457;BME280;30159;49.316;8.558;2023-01-27T09:12:51;101003.94;;;3.05;98.07
44457;BME280;30159;49.316;8.558;2023-01-27T09:15:18;101013.34;;;2.69;100.00
44457;BME280;30159;49.316;8.558;2023-01-27T09:17:44;101011.69;;;2.75;100.00
44457;BME280;30159;49.316;8.558;2023-01-27T09:20:12;101009.63;;;2.77;100.00
44457;BME280;30159;49.316;8.558;2023-01-27T09:22:39;101013.00;;;2.98;100.00
44457;BME280;30159;49.316;8.558;2023-01-27T09:25:07;101014.59;;;3.05;100.00
44457;BME280;30159;49.316;8.558;2023-01-27T09:27:34;100994.44;;;2.84;99.31
44457;BME280;30159;49.316;8.558;2023-01-27T09:30:02;100994.22;;;2.86;99.73
44457;BME280;30159;49.316;8.558;2023-01-27T09:32:29;101023.19;;;3.07;98.79
44457;BME280;30159;49.316;8.558;2023-01-27T09:34:56;101027.69;;;3.13;99.24
44457;BME280;30159;49.316;8.558;2023-01-27T09:37:23;101000.69;;;3.03;98.53
44457;BME280;30159;49.316;8.558;2023-01-27T09:39:53;101019.25;;;3.16;97.84
44457;BME280;30159;49.316;8.558;2023-01-27T09:42:47;101036.59;;;3.32;97.13
44457;BME280;30159;49.316;8.558;2023-01-27T09:45:31;101019.50;;;3.15;95.43
44457;BME280;30159;49.316;8.558;2023-01-27T09:51:07;101035.47;;;3.15;95.52
44457;BME280;30159;49.316;8.558;2023-01-27T09:54:01;101023.91;;;3.28;92.96
44457;BME280;30159;49.316;8.558;2023-01-27T09:56:41;101033.75;;;3.27;93.02
44457;BME280;30159;49.316;8.558;2023-01-27T09:59:20;101014.78;;;3.10;92.59
44457;BME280;30159;49.316;8.558;2023-01-27T10:01:56;101036.94;;;3.11;92.43
44457;BME280;30159;49.316;8.558;2023-01-27T10:04:49;101032.09;;;3.26;92.88
44457;BME280;30159;49.316;8.558;2023-01-27T10:07:54;101037.91;;;3.16;91.70
44457;BME280;30159;49.316;8.558;2023-01-27T10:10:45;101045.00;;;2.91;91.73
44457;BME280;30159;49.316;8.558;2023-01-27T10:13:22;101029.66;;;2.86;91.82
44457;BME280;30159;49.316;8.558;2023-01-27T10:16:03;101030.25;;;2.95;92.70
44457;BME280;30159;49.316;8.558;2023-01-27T10:18:53;101031.06;;;2.95;91.68
44457;BME280;30159;49.316;8.558;2023-01-27T10:21:32;101025.41;;;3.17;91.97
44457;BME280;30159;49.316;8.558;2023-01-27T10:24:11;101027.00;;;3.25;90.37
44457;BME280;30159;49.316;8.558;2023-01-27T10:26:47;101014.59;;;3.05;89.21
44457;BME280;30159;49.316;8.558;2023-01-27T10:29:20;101028.63;;;3.26;88.92
44457;BME280;30159;49.316;8.558;2023-01-27T10:32:06;101025.19;;;3.19;87.57
44457;BME280;30159;49.316;8.558;2023-01-27T10:34:36;101027.38;;;3.28;88.12
44457;BME280;30159;49.316;8.558;2023-01-27T10:37:17;101018.75;;;3.58;86.24
44457;BME280;30159;49.316;8.558;2023-01-27T10:39:55;101022.28;;;3.77;85.11
44457;BME280;30159;49.316;8.558;2023-01-27T10:42:29;101019.91;;;3.69;83.61
44457;BME280;30159;49.316;8.558;2023-01-27T10:45:14;101008.53;;;3.55;84.88
44457;BME280;30159;49.316;8.558;2023-01-27T10:47:53;101020.97;;;3.61;84.29
44457;BME280;30159;49.316;8.558;2023-01-27T10:50:26;101011.25;;;3.48;85.68
44457;BME280;30159;49.316;8.558;2023-01-27T10:52:58;101004.41;;;3.59;84.95
44457;BME280;30159;49.316;8.558;2023-01-27T10:55:32;101004.81;;;3.56;84.52
44457;BME280;30159;49.316;8.558;2023-01-27T10:58:05;100999.13;;;3.52;84.28
44457;BME280;30159;49.316;8.558;2023-01-27T11:00:38;101002.97;;;3.56;84.55
44457;BME280;30159;49.316;8.558;2023-01-27T11:03:11;100997.06;;;3.73;84.95
44457;BME280;30159;49.316;8.558;2023-01-27T11:05:42;100889.84;;;3.21;83.56
44457;BME280;30159;49.316;8.558;2023-01-27T11:08:14;101001.69;;;3.84;82.97
44457;BME280;30159;49.316;8.558;2023-01-27T11:10:44;100850.06;;;2.76;82.90
44457;BME280;30159;49.316;8.558;2023-01-27T11:13:26;100999.44;;;3.63;83.96
44457;BME280;30159;49.316;8.558;2023-01-27T11:15:54;100998.34;;;3.45;84.56
44457;BME280;30159;49.316;8.558;2023-01-27T11:18:23;100992.47;;;3.62;84.63
44457;BME280;30159;49.316;8.558;2023-01-27T11:20:58;100984.81;;;3.90;84.25
44457;BME280;30159;49.316;8.558;2023-01-27T11:23:27;100987.44;;;3.97;84.07
44457;BME280;30159;49.316;8.558;2023-01-27T11:26:01;100915.50;;;3.40;82.48
44457;BME280;30159;49.316;8.558;2023-01-27T11:28:35;100980.03;;;3.99;82.60
44457;BME280;30159;49.316;8.558;2023-01-27T11:31:12;100982.97;;;4.09;81.79
44457;BME280;30159;49.316;8.558;2023-01-27T11:33:50;100974.53;;;4.31;82.39
44457;BME280;30159;49.316;8.558;2023-01-27T11:36:23;100954.00;;;4.31;81.12
44457;BME280;30159;49.316;8.558;2023-01-27T11:38:51;100977.84;;;4.63;80.77
44457;BME280;30159;49.316;8.558;2023-01-27T11:41:18;100981.88;;;4.17;80.22
44457;BME280;30159;49.316;8.558;2023-01-27T11:43:45;100980.97;;;3.86;82.08
44457;BME280;30159;49.316;8.558;2023-01-27T11:46:14;100977.44;;;3.67;82.67
44457;BME280;30159;49.316;8.558;2023-01-27T11:48:43;100982.06;;;3.53;84.27
44457;BME280;30159;49.316;8.558;2023-01-27T11:51:18;100965.38;;;3.65;84.25
44457;BME280;30159;49.316;8.558;2023-01-27T11:53:51;100971.44;;;3.72;84.13
44457;BME280;30159;49.316;8.558;2023-01-27T11:56:18;100965.00;;;3.79;83.91
44457;BME280;30159;49.316;8.558;2023-01-27T11:58:50;100968.13;;;3.76;84.18
44457;BME280;30159;49.316;8.558;2023-01-27T12:01:20;100968.94;;;3.77;84.29
44457;BME280;30159;49.316;8.558;2023-01-27T12:03:54;100976.72;;;3.78;84.30
44457;BME280;30159;49.316;8.558;2023-01-27T12:06:32;100951.31;;;3.51;84.27
44457;BME280;30159;49.316;8.558;2023-01-27T12:09:01;100968.69;;;3.60;84.55
44457;BME280;30159;49.316;8.558;2023-01-27T12:11:28;100820.59;;;2.70;85.43
44457;BME280;30159;49.316;8.558;2023-01-27T12:13:57;100968.69;;;3.60;85.93
44457;BME280;30159;49.316;8.558;2023-01-27T12:16:27;100953.59;;;3.47;86.10
44457;BME280;30159;49.316;8.558;2023-01-27T12:19:00;100964.50;;;3.71;86.74
44457;BME280;30159;49.316;8.558;2023-01-27T12:21:38;100965.41;;;3.83;86.54
44457;BME280;30159;49.316;8.558;2023-01-27T12:24:21;100969.84;;;3.89;85.79
44457;BME280;30159;49.316;8.558;2023-01-27T12:26:50;100981.00;;;3.79;85.89
44457;BME280;30159;49.316;8.558;2023-01-27T12:29:19;100959.84;;;3.85;85.83
44457;BME280;30159;49.316;8.558;2023-01-27T12:31:52;100971.28;;;3.92;85.48
44457;BME280;30159;49.316;8.558;2023-01-27T12:34:26;100973.31;;;3.71;85.93
44457;BME280;30159;49.316;8.558;2023-01-27T12:36:54;100947.84;;;3.50;86.25
44457;BME280;30159;49.316;8.558;2023-01-27T12:39:30;100973.41;;;3.58;87.19
44457;BME280;30159;49.316;8.558;2023-01-27T12:41:57;100955.16;;;3.62;87.59
44457;BME280;30159;49.316;8.558;2023-01-27T12:44:24;100964.06;;;3.74;87.98
44457;BME280;30159;49.316;8.558;2023-01-27T12:46:59;100956.41;;;3.77;87.51
44457;BME280;30159;49.316;8.558;2023-01-27T12:49:30;100964.16;;;3.61;87.68
44457;BME280;30159;49.316;8.558;2023-01-27T12:52:00;100961.78;;;3.52;89.02
44457;BME280;30159;49.316;8.558;2023-01-27T12:54:31;100952.03;;;3.40;89.73
44457;BME280;30159;49.316;8.558;2023-01-27T12:57:02;100962.97;;;3.56;89.43
44457;BME280;30159;49.316;8.558;2023-01-27T12:59:29;100947.91;;;3.44;89.32
44457;BME280;30159;49.316;8.558;2023-01-27T13:02:01;100956.88;;;3.49;89.90
44457;BME280;30159;49.316;8.558;2023-01-27T13:04:37;100950.66;;;3.55;89.66
44457;BME280;30159;49.316;8.558;2023-01-27T13:07:05;100957.66;;;3.75;89.68
44457;BME280;30159;49.316;8.558;2023-01-27T13:09:37;100847.81;;;2.98;88.61